VIAR/ATQ METAR and TAF weather

Enter ICAO airport designator
Station Type Date Time Source
VIAR METAR 2019/07/18 10:30 UTC NOAA

VIAR 181030Z 13007KT 4500 HZ SCT035 FEW040CB SCT100 33/25 Q1000 NOSIG


Station Type Date Time Source
VIAR Decoded METAR 2019/07/18 10:30 UTC NOAA

Amritsar, India (VIAR) 31-38N 074-52E 234M
Jul 18, 2019 - 06:30 AM EDT / 2019.07.18 1030 UTC
Wind: from the SE (130 degrees) at 8 MPH (7 KT):0
Visibility: 2 mile(s):0
Sky conditions: partly cloudy
Weather: haze; Cumulonimbus clouds observed
Temperature: 91 F (33 C)
Heat index: 103.5 F (39.7 C):1
Dew Point: 77 F (25 C)
Relative Humidity: 62%
Pressure (altimeter): 29.53 in. Hg (1000 hPa)
ob: VIAR 181030Z 13007KT 4500 HZ SCT035 FEW040CB SCT100 33/25 Q1000 NOSIG
cycle: 10

Station Type Date Time Source
VIAR TAF 2019/07/17 18:39 UTC NOAA

TAF TAF VIAR 171700Z 1718/1824 07004KT 3500 BR FEW035 SCT100
BECMG 1722/1803 FEW040CB
BECMG 1803/1805 15008KT 4500 BR HZ
BECMG 1817/1819 VRB02KT 3000 HZ BR

Example: see airport list